Solomon Sea — WDE5022 — position and weather

sailwx.info

Track history (hours):
 
Tides and Currents Weather Stations Pressure Air Temp Water Temp Dewpoint Dewpoint Depression Visibility Wind Speed Wind Dir Waves Ship Positions

Solomon Sea

Owner: Kirby Offshore Marine, LLC, Staten Island, NY. More information available from US FCC via Universal Licensing System and Coast Guard Vessel Documentation Center.

Last reported at 2018-Jun-25 05:31 UTC. Time now 2018-Jun-25 05:43 UTC.
Position N 40°41' W 074°05'.

Length 29 m; draft 3.5 m.

Type: Towing. MMSI: 367360960.

Date/timePositionNaut miles runAvg speedWind from/ knotsBaromVisibWave heightAir tempDewpointWater temp
2018-Jun-25 05:31N 40°41' W 074°05'0 0.0
2018-Jun-25 05:01N 40°41' W 074°05'0 0.0
2018-Jun-25 04:31N 40°41' W 074°05'0 0.0
2018-Jun-25 04:00N 40°41' W 074°05'0 0.0
2018-Jun-25 03:31N 40°41' W 074°05'0 0.0
2018-Jun-25 03:01N 40°41' W 074°05'0 0.0
2018-Jun-25 02:30N 40°41' W 074°05'0 0.0
2018-Jun-25 02:00N 40°41' W 074°05'0 0.0
2018-Jun-25 01:30N 40°41' W 074°05'0 0.0
2018-Jun-25 01:00N 40°41' W 074°05'0 0.0
2018-Jun-25 00:31N 40°41' W 074°05'0 0.0
2018-Jun-25 00:00N 40°41' W 074°05'0 0.0
2018-Jun-24 23:31N 40°41' W 074°05'0 0.0
2018-Jun-24 23:00N 40°41' W 074°05'0 0.0
2018-Jun-24 22:30N 40°41' W 074°05'1 1.7
2018-Jun-24 22:00N 40°41' W 074°04'3 5.3
2018-Jun-24 21:23N 40°39' W 074°07'1 3.7
2018-Jun-24 21:00N 40°39' W 074°09'2 3.0
2018-Jun-24 20:31N 40°41' W 074°09'1 0.1
2018-Jun-24 11:45N 40°42' W 074°09'1 5.0
2018-Jun-24 11:30N 40°41' W 074°09'0 0.7
2018-Jun-24 10:59N 40°41' W 074°08'2 4.0
2018-Jun-24 10:30N 40°39' W 074°08'3 5.6
2018-Jun-24 10:01N 40°39' W 074°05'2 3.6
2018-Jun-24 09:30N 40°41' W 074°04'0 0.3
2018-Jun-24 09:01N 40°41' W 074°05'0 0.0
2018-Jun-24 08:28N 40°41' W 074°05'0 0.0
2018-Jun-24 08:00N 40°41' W 074°05'0 0.0
2018-Jun-24 07:31N 40°41' W 074°05'0 0.0
2018-Jun-24 07:00N 40°41' W 074°05'0 0.0
2018-Jun-24 06:30N 40°41' W 074°05'0 0.0
2018-Jun-24 06:01N 40°41' W 074°05'0 0.0
2018-Jun-24 05:28N 40°41' W 074°05'0 0.0
2018-Jun-24 05:00N 40°41' W 074°05'0 0.0
2018-Jun-24 04:29N 40°41' W 074°05'0 0.0
2018-Jun-24 04:01N 40°41' W 074°05'0 0.0
2018-Jun-24 03:31N 40°41' W 074°05'0 0.0
2018-Jun-24 03:00N 40°41' W 074°05'0 0.0
2018-Jun-24 02:29N 40°41' W 074°05'0 0.0
2018-Jun-24 01:59N 40°41' W 074°05'0 0.0
2018-Jun-24 01:31N 40°41' W 074°05'0 0.0
2018-Jun-24 01:00N 40°41' W 074°05'0 0.0
2018-Jun-24 00:29N 40°41' W 074°05'0 0.0
2018-Jun-24 00:00N 40°41' W 074°05'0 0.0
2018-Jun-23 23:30N 40°41' W 074°05'0 0.0
2018-Jun-23 22:59N 40°41' W 074°05'0 0.0
2018-Jun-23 22:31N 40°41' W 074°05'1 2.3
2018-Jun-23 22:00N 40°40' W 074°04'4 7.2
2018-Jun-23 21:30N 40°39' W 074°08'2 4.0
2018-Jun-23 20:55N 40°41' W 074°09'1 2.2
2018-Jun-23 20:20N 40°42' W 074°09'0 0.0
2018-Jun-23 19:51N 40°42' W 074°09'0 0.0
2018-Jun-23 12:20N 40°42' W 074°09'1 3.4
2018-Jun-23 11:58N 40°41' W 074°09'0 0.0
2018-Jun-23 11:30N 40°41' W 074°09'0 0.0
2018-Jun-23 11:00N 40°41' W 074°09'1 1.0
2018-Jun-23 10:30N 40°40' W 074°08'2 3.5
2018-Jun-23 09:58N 40°39' W 074°07'3 5.8
2018-Jun-23 09:30N 40°40' W 074°04'1 2.3
2018-Jun-23 09:00N 40°41' W 074°04'0 0.7
2018-Jun-23 08:30N 40°41' W 074°05'0 0.0
2018-Jun-23 08:01N 40°41' W 074°05'0 0.0
2018-Jun-23 07:29N 40°41' W 074°05'0 0.0
2018-Jun-23 06:54N 40°41' W 074°05'0 0.0
2018-Jun-23 06:30N 40°41' W 074°05'0 0.0
2018-Jun-23 06:01N 40°41' W 074°05'0 0.0
2018-Jun-23 05:31N 40°41' W 074°05'0 0.0
2018-Jun-23 04:59N 40°41' W 074°05'0 0.0
2018-Jun-23 04:30N 40°41' W 074°05'0 0.0
2018-Jun-23 04:00N 40°41' W 074°05'0 0.0
2018-Jun-23 03:30N 40°41' W 074°05'0 0.0
2018-Jun-23 03:00N 40°41' W 074°05'0 0.0
2018-Jun-23 02:30N 40°41' W 074°05'0 0.0
2018-Jun-23 01:54N 40°41' W 074°05'0 0.0
2018-Jun-23 01:27N 40°41' W 074°05'0 0.0
2018-Jun-23 01:01N 40°41' W 074°05'0 0.0
2018-Jun-23 00:28N 40°41' W 074°05'0 0.0
2018-Jun-22 23:59N 40°41' W 074°05'0 0.0
2018-Jun-22 23:28N 40°41' W 074°05'0 0.0
2018-Jun-22 23:01N 40°41' W 074°05'0 0.0
2018-Jun-22 22:31N 40°41' W 074°05'2 3.3
2018-Jun-22 22:00N 40°40' W 074°04'3 6.8
2018-Jun-22 21:31N 40°40' W 074°09'2 0.2
2018-Jun-22 11:53N 40°41' W 074°08'0 0.7
2018-Jun-22 11:30N 40°41' W 074°08'1 1.4
2018-Jun-22 11:00N 40°41' W 074°09'0 0.0
2018-Jun-22 09:41N 40°41' W 074°09'0 0.0
2018-Jun-22 09:18N 40°41' W 074°09'0 0.0
2018-Jun-22 09:00N 40°41' W 074°09'0 0.0
2018-Jun-22 08:31N 40°41' W 074°09'0 0.0
2018-Jun-22 08:00N 40°41' W 074°09'0 0.0
2018-Jun-22 07:30N 40°41' W 074°09'0 0.0
2018-Jun-22 06:59N 40°41' W 074°09'0 0.0
2018-Jun-22 06:23N 40°41' W 074°09'0 0.0
2018-Jun-22 05:44N 40°41' W 074°09'0 0.0
2018-Jun-22 05:09N 40°41' W 074°09'0 0.0
2018-Jun-22 04:59N 40°41' W 074°09'0 0.0
2018-Jun-22 03:54N 40°41' W 074°09'0 0.0
2018-Jun-22 03:27N 40°41' W 074°09'0 0.0
2018-Jun-22 02:57N 40°41' W 074°09'0 0.0
2018-Jun-22 02:02N 40°41' W 074°09'0 0.0
2018-Jun-22 01:45N 40°41' W 074°09'0 0.0
2018-Jun-22 01:28N 40°41' W 074°09'0 0.0
2018-Jun-22 00:44N 40°41' W 074°09'0 0.0
2018-Jun-22 00:18N 40°41' W 074°09'0 0.0
2018-Jun-21 23:37N 40°41' W 074°09'0 0.0
2018-Jun-21 23:30N 40°41' W 074°09'1 1.9
2018-Jun-21 22:50N 40°42' W 074°09'1 0.2
2018-Jun-21 19:02N 40°42' W 074°08'0 8.5
2018-Jun-21 19:00N 40°41' W 074°08'1 2.3
2018-Jun-21 18:30N 40°40' W 074°08'2 4.1
2018-Jun-21 17:57N 40°39' W 074°06'2 5.2
2018-Jun-21 17:30N 40°41' W 074°04'0 0.6
2018-Jun-21 17:00N 40°41' W 074°04'1 3.0
2018-Jun-21 16:31N 40°40' W 074°02'3 5.9
2018-Jun-21 16:01N 40°42' W 073°60'3 3.7
2018-Jun-21 15:15N 40°44' W 073°57'0 0.0
2018-Jun-21 14:52N 40°44' W 073°57'0 0.0
2018-Jun-21 14:30N 40°44' W 073°57'1 1.1
2018-Jun-21 13:56N 40°44' W 073°58'2 5.1
2018-Jun-21 13:31N 40°42' W 073°59'3 5.4
2018-Jun-21 13:00N 40°41' W 074°02'2 4.5
2018-Jun-21 12:30N 40°41' W 074°05'0 0.0
2018-Jun-21 12:00N 40°41' W 074°05'0 0.0
2018-Jun-21 11:30N 40°41' W 074°05'0 0.0
2018-Jun-21 11:00N 40°41' W 074°05'0 0.0
2018-Jun-21 10:30N 40°41' W 074°05'0 0.0
2018-Jun-21 09:59N 40°41' W 074°05'0 0.0
2018-Jun-21 09:31N 40°41' W 074°05'1 1.9
2018-Jun-21 09:00N 40°41' W 074°04'2 3.7
2018-Jun-21 08:31N 40°39' W 074°03'1 1.6
2018-Jun-21 08:01N 40°39' W 074°04'3 5.3
2018-Jun-21 07:30N 40°39' W 074°08'1 1.3
2018-Jun-21 06:56N 40°38' W 074°09'2 5.6
2018-Jun-21 06:31N 40°39' W 074°06'1 2.0
2018-Jun-21 05:59N 40°39' W 074°04'2 3.4
2018-Jun-21 05:29N 40°41' W 074°04'1 1.1
2018-Jun-21 05:00N 40°41' W 074°05'0 0.0
2018-Jun-21 04:31N 40°41' W 074°05'0 0.0
2018-Jun-21 04:01N 40°41' W 074°05'0 0.0
2018-Jun-21 03:29N 40°41' W 074°05'0 0.0
2018-Jun-21 03:00N 40°41' W 074°05'0 0.0
2018-Jun-21 02:22N 40°41' W 074°05'0 0.0
2018-Jun-21 02:01N 40°41' W 074°05'0 0.0
2018-Jun-21 01:30N 40°41' W 074°05'0 0.0
2018-Jun-21 01:00N 40°41' W 074°05'0 0.7
2018-Jun-21 00:30N 40°41' W 074°04'1 2.4
2018-Jun-21 00:00N 40°40' W 074°04'3 6.5
2018-Jun-20 23:29N 40°39' W 074°08'2 4.2
2018-Jun-20 22:59N 40°41' W 074°09'0 0.3
2018-Jun-20 22:29N 40°41' W 074°09'0 0.7
2018-Jun-20 22:01N 40°41' W 074°08'1 0.1
2018-Jun-20 07:20N 40°42' W 074°09'0 0.0
2018-Jun-20 06:16N 40°42' W 074°09'0 0.0
2018-Jun-20 00:28N 40°42' W 074°09'1 1.3
2018-Jun-19 23:40N 40°41' W 074°08'1 2.4
2018-Jun-19 23:26N 40°41' W 074°09'1 3.2
2018-Jun-19 22:59N 40°39' W 074°09'2 4.0
2018-Jun-19 22:23N 40°39' W 074°05'2 5.6
2018-Jun-19 22:00N 40°41' W 074°04'1 1.0
2018-Jun-19 21:30N 40°41' W 074°04'3 5.2
2018-Jun-19 21:01N 40°42' W 074°01'4 4.6
2018-Jun-19 20:07N 40°44' W 073°57'0 0.2
2018-Jun-19 19:53N 40°44' W 073°57'0 0.1
2018-Jun-19 19:29N 40°44' W 073°57'1 1.1
2018-Jun-19 18:50N 40°44' W 073°58'2 6.8
2018-Jun-19 18:29N 40°42' W 073°60'4 7.6
2018-Jun-19 18:01N 40°41' W 074°04'1 1.8
2018-Jun-19 17:31N 40°41' W 074°05'0 0.0
2018-Jun-19 17:00N 40°41' W 074°05'0 0.0
2018-Jun-19 16:30N 40°41' W 074°05'0 0.0
2018-Jun-19 16:00N 40°41' W 074°05'0 0.0
2018-Jun-19 15:30N 40°41' W 074°05'0 0.0
2018-Jun-19 15:00N 40°41' W 074°05'1 1.7
2018-Jun-19 14:30N 40°41' W 074°04'1 1.7
2018-Jun-19 14:01N 40°41' W 074°05'0 0.0
2018-Jun-19 13:31N 40°41' W 074°05'0 0.2
2018-Jun-19 13:00N 40°41' W 074°05'0 0.1
2018-Jun-19 12:31N 40°41' W 074°05'0 0.1
2018-Jun-19 12:01N 40°41' W 074°05'0 0.1
2018-Jun-19 11:30N 40°41' W 074°05'0 0.0
2018-Jun-19 11:00N 40°41' W 074°05'0 0.0
2018-Jun-19 10:31N 40°41' W 074°05'0 0.0
2018-Jun-19 10:00N 40°41' W 074°05'0 0.0
2018-Jun-19 09:31N 40°41' W 074°05'0 0.0
2018-Jun-19 09:01N 40°41' W 074°05'0 0.0
2018-Jun-19 08:31N 40°41' W 074°05'0 0.0
2018-Jun-19 08:00N 40°41' W 074°05'0 0.0
2018-Jun-19 07:30N 40°41' W 074°05'0 0.0
2018-Jun-19 07:01N 40°41' W 074°05'0 0.0
2018-Jun-19 06:31N 40°41' W 074°05'0 0.0
2018-Jun-19 06:01N 40°41' W 074°05'0 0.0
2018-Jun-19 05:31N 40°41' W 074°05'0 0.0
2018-Jun-19 05:01N 40°41' W 074°05'0 0.0
2018-Jun-19 04:31N 40°41' W 074°05'0 0.0
2018-Jun-19 04:00N 40°41' W 074°05'0 0.0
2018-Jun-19 03:31N 40°41' W 074°05'0 0.0
2018-Jun-19 03:00N 40°41' W 074°05'0 0.0
2018-Jun-19 02:31N 40°41' W 074°05'0 0.0
2018-Jun-19 02:01N 40°41' W 074°05'0 0.0
2018-Jun-19 01:30N 40°41' W 074°05'0 0.0
2018-Jun-19 01:01N 40°41' W 074°05'0 0.1
2018-Jun-19 00:30N 40°41' W 074°05'3 5.1
2018-Jun-19 00:00N 40°42' W 074°01'4 5.2
2018-Jun-18 23:12N 40°44' W 073°57'0 0.0
2018-Jun-18 22:48N 40°44' W 073°57'0 0.2
2018-Jun-18 22:22N 40°44' W 073°57'2 4.4
2018-Jun-18 22:01N 40°43' W 073°58'3 5.0
2018-Jun-18 21:31N 40°41' W 074°01'3 5.6
2018-Jun-18 21:01N 40°41' W 074°04'0 0.2
2018-Jun-18 20:30N 40°41' W 074°04'2 3.7
2018-Jun-18 20:00N 40°39' W 074°05'3 5.5
2018-Jun-18 19:28N 40°40' W 074°09'1 2.3
2018-Jun-18 19:00N 40°41' W 074°09'0 0.0
2018-Jun-18 18:26N 40°41' W 074°09'0 0.0
2018-Jun-18 18:00N 40°41' W 074°09'1 1.0
2018-Jun-18 17:23N 40°41' W 074°08'0 0.0
2018-Jun-18 16:05N 40°41' W 074°08'0 0.0
2018-Jun-18 15:57N 40°41' W 074°08'0 0.0
2018-Jun-18 15:29N 40°41' W 074°08'0 0.0
2018-Jun-18 14:55N 40°41' W 074°08'0 0.0
2018-Jun-18 13:50N 40°41' W 074°08'1 1.3
2018-Jun-18 13:22N 40°41' W 074°09'0 0.1
2018-Jun-18 13:01N 40°41' W 074°09'1 0.1
2018-Jun-18 08:30N 40°41' W 074°08'0 0.0
2018-Jun-18 08:00N 40°41' W 074°08'0 0.0
2018-Jun-18 05:44N 40°41' W 074°08'0 0.0
2018-Jun-18 05:30N 40°41' W 074°08'0 0.0
2018-Jun-18 05:00N 40°41' W 074°08'0 0.0
2018-Jun-18 04:25N 40°41' W 074°08'0 0.0
2018-Jun-18 04:00N 40°41' W 074°08'0 0.0
2018-Jun-18 03:30N 40°41' W 074°08'0 0.0
2018-Jun-17 03:28N 40°41' W 074°08'0 0.0
2018-Jun-17 01:55N 40°41' W 074°08'0 0.0
2018-Jun-17 01:27N 40°41' W 074°08'0 0.1
2018-Jun-16 23:24N 40°41' W 074°08'1 1.5
2018-Jun-16 23:01N 40°41' W 074°08'2 4.2
2018-Jun-16 22:30N 40°39' W 074°07'3 7.1
2018-Jun-16 22:01N 40°40' W 074°03'4 8.4
2018-Jun-16 21:30N 40°43' W 073°58'2 2.2
2018-Jun-16 20:41N 40°44' W 073°57'1 2.9
2018-Jun-16 20:28N 40°44' W 073°58'2 5.1
2018-Jun-16 20:00N 40°42' W 073°59'3 6.0
2018-Jun-16 19:31N 40°40' W 074°02'5 7.1
2018-Jun-16 18:49N 40°39' W 074°08'2 6.6
2018-Jun-16 18:31N 40°40' W 074°08'1 1.1
2018-Jun-16 18:00N 40°41' W 074°09'0 0.1
2018-Jun-16 17:30N 40°41' W 074°08'0 0.0
2018-Jun-16 17:00N 40°41' W 074°08'0 0.1
2018-Jun-16 16:29N 40°41' W 074°08'1 0.2
2018-Jun-16 13:42N 40°41' W 074°08'1 2.6
2018-Jun-16 13:30N 40°41' W 074°08'0 0.0
2018-Jun-16 13:00N 40°41' W 074°08'1 0.0
2018-Jun-16 02:00N 40°41' W 074°08'0 0.1
2018-Jun-16 00:03N 40°41' W 074°08'1 3.4
2018-Jun-15 23:54N 40°41' W 074°09'0 0.8
2018-Jun-15 23:30N 40°41' W 074°08'3 4.0
2018-Jun-15 22:50N 40°39' W 074°06'2 7.1
2018-Jun-15 22:30N 40°40' W 074°04'1 2.4
2018-Jun-15 22:01N 40°41' W 074°05'2 4.5
2018-Jun-15 21:30N 40°39' W 074°05'3 4.6
2018-Jun-15 20:57N 40°40' W 074°08'  
Track history (hours):
 
Tides and Currents Weather Stations Pressure Air Temp Water Temp Dewpoint Dewpoint Depression Visibility Wind Speed Wind Dir Waves Ship Positions

Solomon Sea

Owner: Kirby Offshore Marine, LLC, Staten Island, NY. More information available from US FCC via Universal Licensing System and Coast Guard Vessel Documentation Center.

Last reported at 2018-Jun-25 05:31 UTC. Time now 2018-Jun-25 05:43 UTC.
Position N 40°41' W 074°05'.

Length 29 m; draft 3.5 m.

Type: Towing. MMSI: 367360960.

Date/timePositionNaut miles runAvg speedWind from/ knotsBaromVisibWave heightAir tempDewpointWater temp
2018-Jun-25 05:31N 40°41' W 074°05'0 0.0
2018-Jun-25 05:01N 40°41' W 074°05'0 0.0
2018-Jun-25 04:31N 40°41' W 074°05'0 0.0
2018-Jun-25 04:00N 40°41' W 074°05'0 0.0
2018-Jun-25 03:31N 40°41' W 074°05'0 0.0
2018-Jun-25 03:01N 40°41' W 074°05'0 0.0
2018-Jun-25 02:30N 40°41' W 074°05'0 0.0
2018-Jun-25 02:00N 40°41' W 074°05'0 0.0
2018-Jun-25 01:30N 40°41' W 074°05'0 0.0
2018-Jun-25 01:00N 40°41' W 074°05'0 0.0
2018-Jun-25 00:31N 40°41' W 074°05'0 0.0
2018-Jun-25 00:00N 40°41' W 074°05'0 0.0
2018-Jun-24 23:31N 40°41' W 074°05'0 0.0
2018-Jun-24 23:00N 40°41' W 074°05'0 0.0
2018-Jun-24 22:30N 40°41' W 074°05'1 1.7
2018-Jun-24 22:00N 40°41' W 074°04'3 5.3
2018-Jun-24 21:23N 40°39' W 074°07'1 3.7
2018-Jun-24 21:00N 40°39' W 074°09'2 3.0
2018-Jun-24 20:31N 40°41' W 074°09'1 0.1
2018-Jun-24 11:45N 40°42' W 074°09'1 5.0
2018-Jun-24 11:30N 40°41' W 074°09'0 0.7
2018-Jun-24 10:59N 40°41' W 074°08'2 4.0
2018-Jun-24 10:30N 40°39' W 074°08'3 5.6
2018-Jun-24 10:01N 40°39' W 074°05'2 3.6
2018-Jun-24 09:30N 40°41' W 074°04'0 0.3
2018-Jun-24 09:01N 40°41' W 074°05'0 0.0
2018-Jun-24 08:28N 40°41' W 074°05'0 0.0
2018-Jun-24 08:00N 40°41' W 074°05'0 0.0
2018-Jun-24 07:31N 40°41' W 074°05'0 0.0
2018-Jun-24 07:00N 40°41' W 074°05'0 0.0
2018-Jun-24 06:30N 40°41' W 074°05'0 0.0
2018-Jun-24 06:01N 40°41' W 074°05'0 0.0
2018-Jun-24 05:28N 40°41' W 074°05'0 0.0
2018-Jun-24 05:00N 40°41' W 074°05'0 0.0
2018-Jun-24 04:29N 40°41' W 074°05'0 0.0
2018-Jun-24 04:01N 40°41' W 074°05'0 0.0
2018-Jun-24 03:31N 40°41' W 074°05'0 0.0
2018-Jun-24 03:00N 40°41' W 074°05'0 0.0
2018-Jun-24 02:29N 40°41' W 074°05'0 0.0
2018-Jun-24 01:59N 40°41' W 074°05'0 0.0
2018-Jun-24 01:31N 40°41' W 074°05'0 0.0
2018-Jun-24 01:00N 40°41' W 074°05'0 0.0
2018-Jun-24 00:29N 40°41' W 074°05'0 0.0
2018-Jun-24 00:00N 40°41' W 074°05'0 0.0
2018-Jun-23 23:30N 40°41' W 074°05'0 0.0
2018-Jun-23 22:59N 40°41' W 074°05'0 0.0
2018-Jun-23 22:31N 40°41' W 074°05'1 2.3
2018-Jun-23 22:00N 40°40' W 074°04'4 7.2
2018-Jun-23 21:30N 40°39' W 074°08'2 4.0
2018-Jun-23 20:55N 40°41' W 074°09'1 2.2
2018-Jun-23 20:20N 40°42' W 074°09'0 0.0
2018-Jun-23 19:51N 40°42' W 074°09'0 0.0
2018-Jun-23 12:20N 40°42' W 074°09'1 3.4
2018-Jun-23 11:58N 40°41' W 074°09'0 0.0
2018-Jun-23 11:30N 40°41' W 074°09'0 0.0
2018-Jun-23 11:00N 40°41' W 074°09'1 1.0
2018-Jun-23 10:30N 40°40' W 074°08'2 3.5
2018-Jun-23 09:58N 40°39' W 074°07'3 5.8
2018-Jun-23 09:30N 40°40' W 074°04'1 2.3
2018-Jun-23 09:00N 40°41' W 074°04'0 0.7
2018-Jun-23 08:30N 40°41' W 074°05'0 0.0
2018-Jun-23 08:01N 40°41' W 074°05'0 0.0
2018-Jun-23 07:29N 40°41' W 074°05'0 0.0
2018-Jun-23 06:54N 40°41' W 074°05'0 0.0
2018-Jun-23 06:30N 40°41' W 074°05'0 0.0
2018-Jun-23 06:01N 40°41' W 074°05'0 0.0
2018-Jun-23 05:31N 40°41' W 074°05'0 0.0
2018-Jun-23 04:59N 40°41' W 074°05'0 0.0
2018-Jun-23 04:30N 40°41' W 074°05'0 0.0
2018-Jun-23 04:00N 40°41' W 074°05'0 0.0
2018-Jun-23 03:30N 40°41' W 074°05'0 0.0
2018-Jun-23 03:00N 40°41' W 074°05'0 0.0
2018-Jun-23 02:30N 40°41' W 074°05'0 0.0
2018-Jun-23 01:54N 40°41' W 074°05'0 0.0
2018-Jun-23 01:27N 40°41' W 074°05'0 0.0
2018-Jun-23 01:01N 40°41' W 074°05'0 0.0
2018-Jun-23 00:28N 40°41' W 074°05'0 0.0
2018-Jun-22 23:59N 40°41' W 074°05'0 0.0
2018-Jun-22 23:28N 40°41' W 074°05'0 0.0
2018-Jun-22 23:01N 40°41' W 074°05'0 0.0
2018-Jun-22 22:31N 40°41' W 074°05'2 3.3
2018-Jun-22 22:00N 40°40' W 074°04'3 6.8
2018-Jun-22 21:31N 40°40' W 074°09'2 0.2
2018-Jun-22 11:53N 40°41' W 074°08'0 0.7
2018-Jun-22 11:30N 40°41' W 074°08'1 1.4
2018-Jun-22 11:00N 40°41' W 074°09'0 0.0
2018-Jun-22 09:41N 40°41' W 074°09'0 0.0
2018-Jun-22 09:18N 40°41' W 074°09'0 0.0
2018-Jun-22 09:00N 40°41' W 074°09'0 0.0
2018-Jun-22 08:31N 40°41' W 074°09'0 0.0
2018-Jun-22 08:00N 40°41' W 074°09'0 0.0
2018-Jun-22 07:30N 40°41' W 074°09'0 0.0
2018-Jun-22 06:59N 40°41' W 074°09'0 0.0
2018-Jun-22 06:23N 40°41' W 074°09'0 0.0
2018-Jun-22 05:44N 40°41' W 074°09'0 0.0
2018-Jun-22 05:09N 40°41' W 074°09'0 0.0
2018-Jun-22 04:59N 40°41' W 074°09'0 0.0
2018-Jun-22 03:54N 40°41' W 074°09'0 0.0
2018-Jun-22 03:27N 40°41' W 074°09'0 0.0
2018-Jun-22 02:57N 40°41' W 074°09'0 0.0
2018-Jun-22 02:02N 40°41' W 074°09'0 0.0
2018-Jun-22 01:45N 40°41' W 074°09'0 0.0
2018-Jun-22 01:28N 40°41' W 074°09'0 0.0
2018-Jun-22 00:44N 40°41' W 074°09'0 0.0
2018-Jun-22 00:18N 40°41' W 074°09'0 0.0
2018-Jun-21 23:37N 40°41' W 074°09'0 0.0
2018-Jun-21 23:30N 40°41' W 074°09'1 1.9
2018-Jun-21 22:50N 40°42' W 074°09'1 0.2
2018-Jun-21 19:02N 40°42' W 074°08'0 8.5
2018-Jun-21 19:00N 40°41' W 074°08'1 2.3
2018-Jun-21 18:30N 40°40' W 074°08'2 4.1
2018-Jun-21 17:57N 40°39' W 074°06'2 5.2
2018-Jun-21 17:30N 40°41' W 074°04'0 0.6
2018-Jun-21 17:00N 40°41' W 074°04'1 3.0
2018-Jun-21 16:31N 40°40' W 074°02'3 5.9
2018-Jun-21 16:01N 40°42' W 073°60'3 3.7
2018-Jun-21 15:15N 40°44' W 073°57'0 0.0
2018-Jun-21 14:52N 40°44' W 073°57'0 0.0
2018-Jun-21 14:30N 40°44' W 073°57'1 1.1
2018-Jun-21 13:56N 40°44' W 073°58'2 5.1
2018-Jun-21 13:31N 40°42' W 073°59'3 5.4
2018-Jun-21 13:00N 40°41' W 074°02'2 4.5
2018-Jun-21 12:30N 40°41' W 074°05'0 0.0
2018-Jun-21 12:00N 40°41' W 074°05'0 0.0
2018-Jun-21 11:30N 40°41' W 074°05'0 0.0
2018-Jun-21 11:00N 40°41' W 074°05'0 0.0
2018-Jun-21 10:30N 40°41' W 074°05'0 0.0
2018-Jun-21 09:59N 40°41' W 074°05'0 0.0
2018-Jun-21 09:31N 40°41' W 074°05'1 1.9
2018-Jun-21 09:00N 40°41' W 074°04'2 3.7
2018-Jun-21 08:31N 40°39' W 074°03'1 1.6
2018-Jun-21 08:01N 40°39' W 074°04'3 5.3
2018-Jun-21 07:30N 40°39' W 074°08'1 1.3
2018-Jun-21 06:56N 40°38' W 074°09'2 5.6
2018-Jun-21 06:31N 40°39' W 074°06'1 2.0
2018-Jun-21 05:59N 40°39' W 074°04'2 3.4
2018-Jun-21 05:29N 40°41' W 074°04'1 1.1
2018-Jun-21 05:00N 40°41' W 074°05'0 0.0
2018-Jun-21 04:31N 40°41' W 074°05'0 0.0
2018-Jun-21 04:01N 40°41' W 074°05'0 0.0
2018-Jun-21 03:29N 40°41' W 074°05'0 0.0
2018-Jun-21 03:00N 40°41' W 074°05'0 0.0
2018-Jun-21 02:22N 40°41' W 074°05'0 0.0
2018-Jun-21 02:01N 40°41' W 074°05'0 0.0
2018-Jun-21 01:30N 40°41' W 074°05'0 0.0
2018-Jun-21 01:00N 40°41' W 074°05'0 0.7
2018-Jun-21 00:30N 40°41' W 074°04'1 2.4
2018-Jun-21 00:00N 40°40' W 074°04'3 6.5
2018-Jun-20 23:29N 40°39' W 074°08'2 4.2
2018-Jun-20 22:59N 40°41' W 074°09'0 0.3
2018-Jun-20 22:29N 40°41' W 074°09'0 0.7
2018-Jun-20 22:01N 40°41' W 074°08'1 0.1
2018-Jun-20 07:20N 40°42' W 074°09'0 0.0
2018-Jun-20 06:16N 40°42' W 074°09'0 0.0
2018-Jun-20 00:28N 40°42' W 074°09'1 1.3
2018-Jun-19 23:40N 40°41' W 074°08'1 2.4
2018-Jun-19 23:26N 40°41' W 074°09'1 3.2
2018-Jun-19 22:59N 40°39' W 074°09'2 4.0
2018-Jun-19 22:23N 40°39' W 074°05'2 5.6
2018-Jun-19 22:00N 40°41' W 074°04'1 1.0
2018-Jun-19 21:30N 40°41' W 074°04'3 5.2
2018-Jun-19 21:01N 40°42' W 074°01'4 4.6
2018-Jun-19 20:07N 40°44' W 073°57'0 0.2
2018-Jun-19 19:53N 40°44' W 073°57'0 0.1
2018-Jun-19 19:29N 40°44' W 073°57'1 1.1
2018-Jun-19 18:50N 40°44' W 073°58'2 6.8
2018-Jun-19 18:29N 40°42' W 073°60'4 7.6
2018-Jun-19 18:01N 40°41' W 074°04'1 1.8
2018-Jun-19 17:31N 40°41' W 074°05'0 0.0
2018-Jun-19 17:00N 40°41' W 074°05'0 0.0
2018-Jun-19 16:30N 40°41' W 074°05'0 0.0
2018-Jun-19 16:00N 40°41' W 074°05'0 0.0
2018-Jun-19 15:30N 40°41' W 074°05'0 0.0
2018-Jun-19 15:00N 40°41' W 074°05'1 1.7
2018-Jun-19 14:30N 40°41' W 074°04'1 1.7
2018-Jun-19 14:01N 40°41' W 074°05'0 0.0
2018-Jun-19 13:31N 40°41' W 074°05'0 0.2
2018-Jun-19 13:00N 40°41' W 074°05'0 0.1
2018-Jun-19 12:31N 40°41' W 074°05'0 0.1
2018-Jun-19 12:01N 40°41' W 074°05'0 0.1
2018-Jun-19 11:30N 40°41' W 074°05'0 0.0
2018-Jun-19 11:00N 40°41' W 074°05'0 0.0
2018-Jun-19 10:31N 40°41' W 074°05'0 0.0
2018-Jun-19 10:00N 40°41' W 074°05'0 0.0
2018-Jun-19 09:31N 40°41' W 074°05'0 0.0
2018-Jun-19 09:01N 40°41' W 074°05'0 0.0
2018-Jun-19 08:31N 40°41' W 074°05'0 0.0
2018-Jun-19 08:00N 40°41' W 074°05'0 0.0
2018-Jun-19 07:30N 40°41' W 074°05'0 0.0
2018-Jun-19 07:01N 40°41' W 074°05'0 0.0
2018-Jun-19 06:31N 40°41' W 074°05'0 0.0
2018-Jun-19 06:01N 40°41' W 074°05'0 0.0
2018-Jun-19 05:31N 40°41' W 074°05'0 0.0
2018-Jun-19 05:01N 40°41' W 074°05'0 0.0
2018-Jun-19 04:31N 40°41' W 074°05'0 0.0
2018-Jun-19 04:00N 40°41' W 074°05'0 0.0
2018-Jun-19 03:31N 40°41' W 074°05'0 0.0
2018-Jun-19 03:00N 40°41' W 074°05'0 0.0
2018-Jun-19 02:31N 40°41' W 074°05'0 0.0
2018-Jun-19 02:01N 40°41' W 074°05'0 0.0
2018-Jun-19 01:30N 40°41' W 074°05'0 0.0
2018-Jun-19 01:01N 40°41' W 074°05'0 0.1
2018-Jun-19 00:30N 40°41' W 074°05'3 5.1
2018-Jun-19 00:00N 40°42' W 074°01'4 5.2
2018-Jun-18 23:12N 40°44' W 073°57'0 0.0
2018-Jun-18 22:48N 40°44' W 073°57'0 0.2
2018-Jun-18 22:22N 40°44' W 073°57'2 4.4
2018-Jun-18 22:01N 40°43' W 073°58'3 5.0
2018-Jun-18 21:31N 40°41' W 074°01'3 5.6
2018-Jun-18 21:01N 40°41' W 074°04'0 0.2
2018-Jun-18 20:30N 40°41' W 074°04'2 3.7
2018-Jun-18 20:00N 40°39' W 074°05'3 5.5
2018-Jun-18 19:28N 40°40' W 074°09'1 2.3
2018-Jun-18 19:00N 40°41' W 074°09'0 0.0
2018-Jun-18 18:26N 40°41' W 074°09'0 0.0
2018-Jun-18 18:00N 40°41' W 074°09'1 1.0
2018-Jun-18 17:23N 40°41' W 074°08'0 0.0
2018-Jun-18 16:05N 40°41' W 074°08'0 0.0
2018-Jun-18 15:57N 40°41' W 074°08'0 0.0
2018-Jun-18 15:29N 40°41' W 074°08'0 0.0
2018-Jun-18 14:55N 40°41' W 074°08'0 0.0
2018-Jun-18 13:50N 40°41' W 074°08'1 1.3
2018-Jun-18 13:22N 40°41' W 074°09'0 0.1
2018-Jun-18 13:01N 40°41' W 074°09'1 0.1
2018-Jun-18 08:30N 40°41' W 074°08'0 0.0
2018-Jun-18 08:00N 40°41' W 074°08'0 0.0
2018-Jun-18 05:44N 40°41' W 074°08'0 0.0
2018-Jun-18 05:30N 40°41' W 074°08'0 0.0
2018-Jun-18 05:00N 40°41' W 074°08'0 0.0
2018-Jun-18 04:25N 40°41' W 074°08'0 0.0
2018-Jun-18 04:00N 40°41' W 074°08'0 0.0
2018-Jun-18 03:30N 40°41' W 074°08'0 0.0
2018-Jun-17 03:28N 40°41' W 074°08'0 0.0
2018-Jun-17 01:55N 40°41' W 074°08'0 0.0
2018-Jun-17 01:27N 40°41' W 074°08'0 0.1
2018-Jun-16 23:24N 40°41' W 074°08'1 1.5
2018-Jun-16 23:01N 40°41' W 074°08'2 4.2
2018-Jun-16 22:30N 40°39' W 074°07'3 7.1
2018-Jun-16 22:01N 40°40' W 074°03'4 8.4
2018-Jun-16 21:30N 40°43' W 073°58'2 2.2
2018-Jun-16 20:41N 40°44' W 073°57'1 2.9
2018-Jun-16 20:28N 40°44' W 073°58'2 5.1
2018-Jun-16 20:00N 40°42' W 073°59'3 6.0
2018-Jun-16 19:31N 40°40' W 074°02'5 7.1
2018-Jun-16 18:49N 40°39' W 074°08'2 6.6
2018-Jun-16 18:31N 40°40' W 074°08'1 1.1
2018-Jun-16 18:00N 40°41' W 074°09'0 0.1
2018-Jun-16 17:30N 40°41' W 074°08'0 0.0
2018-Jun-16 17:00N 40°41' W 074°08'0 0.1
2018-Jun-16 16:29N 40°41' W 074°08'1 0.2
2018-Jun-16 13:42N 40°41' W 074°08'1 2.6
2018-Jun-16 13:30N 40°41' W 074°08'0 0.0
2018-Jun-16 13:00N 40°41' W 074°08'1 0.0
2018-Jun-16 02:00N 40°41' W 074°08'0 0.1
2018-Jun-16 00:03N 40°41' W 074°08'1 3.4
2018-Jun-15 23:54N 40°41' W 074°09'0 0.8
2018-Jun-15 23:30N 40°41' W 074°08'3 4.0
2018-Jun-15 22:50N 40°39' W 074°06'2 7.1
2018-Jun-15 22:30N 40°40' W 074°04'1 2.4
2018-Jun-15 22:01N 40°41' W 074°05'2 4.5
2018-Jun-15 21:30N 40°39' W 074°05'3 4.6
2018-Jun-15 20:57N 40°40' W 074°08'  

Dump ship's entire track history